createdAt,value
2022-11-10T00:01:39.216Z,100.00
2022-11-10T00:04:24.101Z,100.00
2022-11-10T00:07:09.096Z,100.00
2022-11-10T00:09:55.089Z,100.00
2022-11-10T00:12:40.223Z,100.00
2022-11-10T00:15:43.636Z,100.00
2022-11-10T00:18:28.843Z,100.00
2022-11-10T00:21:16.356Z,100.00
2022-11-10T00:24:01.420Z,100.00
2022-11-10T00:26:46.532Z,100.00
2022-11-10T00:29:31.660Z,100.00
2022-11-10T00:32:16.614Z,100.00
2022-11-10T00:35:01.661Z,100.00
2022-11-10T00:37:49.330Z,100.00
2022-11-10T00:40:34.524Z,100.00
2022-11-10T00:43:25.298Z,100.00
2022-11-10T00:46:11.756Z,100.00
2022-11-10T00:48:56.888Z,100.00
2022-11-10T00:51:41.808Z,100.00
2022-11-10T00:54:26.984Z,100.00
2022-11-10T00:57:11.861Z,100.00
2022-11-10T00:59:56.909Z,100.00
2022-11-10T01:02:42.169Z,100.00
2022-11-10T01:05:27.395Z,100.00
2022-11-10T01:08:12.341Z,100.00
2022-11-10T01:11:14.920Z,100.00
2022-11-10T01:13:59.824Z,100.00
2022-11-10T01:16:44.654Z,100.00
2022-11-10T01:19:29.607Z,100.00
2022-11-10T01:22:14.603Z,100.00
2022-11-10T01:24:59.548Z,100.00
2022-11-10T01:27:44.709Z,100.00
2022-11-10T01:30:29.630Z,100.00
2022-11-10T01:33:14.640Z,100.00
2022-11-10T01:36:00.467Z,100.00
2022-11-10T01:38:45.754Z,100.00
2022-11-10T01:41:30.806Z,100.00
2022-11-10T01:44:20.730Z,100.00
2022-11-10T01:47:05.967Z,100.00
2022-11-10T01:49:50.976Z,100.00
2022-11-10T01:52:37.064Z,100.00
2022-11-10T01:55:24.278Z,100.00
2022-11-10T01:58:12.138Z,100.00
2022-11-10T02:00:57.458Z,100.00
2022-11-10T02:04:14.823Z,100.00
2022-11-10T02:06:59.900Z,100.00
2022-11-10T02:09:45.329Z,100.00
2022-11-10T02:12:37.976Z,100.00
2022-11-10T02:15:23.731Z,100.00
2022-11-10T02:18:09.072Z,100.00
2022-11-10T02:20:54.147Z,100.00
2022-11-10T02:23:39.246Z,100.00
2022-11-10T02:26:27.769Z,100.00
2022-11-10T02:29:13.999Z,100.00
2022-11-10T02:31:58.914Z,100.00
2022-11-10T02:34:44.658Z,100.00
2022-11-10T02:37:29.883Z,100.00
2022-11-10T02:40:14.978Z,100.00
2022-11-10T02:43:00.049Z,100.00
2022-11-10T02:45:45.946Z,100.00
2022-11-10T02:48:30.831Z,100.00
2022-11-10T02:51:15.922Z,100.00
2022-11-10T02:54:01.047Z,100.00
2022-11-10T02:56:45.740Z,100.00
2022-11-10T02:59:30.818Z,100.00
2022-11-10T03:02:15.663Z,100.00
2022-11-10T03:05:00.728Z,100.00
2022-11-10T03:07:45.782Z,100.00
2022-11-10T03:10:31.101Z,100.00
2022-11-10T03:13:15.975Z,100.00
2022-11-10T03:16:01.070Z,100.00
2022-11-10T03:18:46.057Z,100.00
2022-11-10T03:21:30.931Z,100.00
2022-11-10T03:24:15.956Z,100.00
2022-11-10T03:27:01.116Z,100.00
2022-11-10T03:29:45.983Z,100.00
2022-11-10T03:32:31.048Z,100.00
2022-11-10T03:35:16.376Z,100.00
2022-11-10T03:38:02.003Z,100.00
2022-11-10T03:41:18.652Z,100.00
2022-11-10T03:43:54.584Z,100.00
2022-11-10T03:46:42.849Z,100.00
2022-11-10T03:49:28.848Z,100.00
2022-11-10T03:52:15.309Z,100.00
2022-11-10T03:55:03.305Z,100.00
2022-11-10T03:57:48.570Z,100.00
2022-11-10T04:00:33.855Z,100.00
2022-11-10T04:03:18.839Z,100.00
2022-11-10T04:06:22.605Z,100.00
2022-11-10T04:09:08.038Z,100.00
2022-11-10T04:12:11.765Z,100.00
2022-11-10T04:15:15.739Z,100.00
2022-11-10T04:18:19.479Z,100.00
2022-11-10T04:21:04.710Z,100.00
2022-11-10T04:23:49.926Z,100.00
2022-11-10T04:26:38.556Z,100.00
2022-11-10T04:29:23.704Z,100.00
2022-11-10T04:32:08.632Z,100.00
2022-11-10T04:34:53.600Z,100.00
2022-11-10T04:37:38.450Z,100.00
2022-11-10T04:40:23.320Z,100.00
2022-11-10T04:43:08.535Z,100.00
2022-11-10T04:45:54.065Z,100.00
2022-11-10T04:48:39.172Z,100.00
2022-11-10T04:51:36.182Z,100.00
2022-11-10T04:54:21.333Z,100.00
2022-11-10T04:57:06.316Z,100.00
2022-11-10T04:59:51.202Z,100.00
2022-11-10T05:02:39.572Z,100.00
2022-11-10T05:05:25.279Z,100.00
2022-11-10T05:08:10.574Z,100.00
2022-11-10T05:10:55.600Z,100.00
2022-11-10T05:13:41.371Z,100.00
2022-11-10T05:16:26.585Z,100.00
2022-11-10T05:19:11.535Z,100.00
2022-11-10T05:21:56.540Z,100.00
2022-11-10T05:24:41.434Z,100.00
2022-11-10T05:27:26.558Z,100.00
2022-11-10T05:30:11.619Z,100.00
2022-11-10T05:32:57.443Z,100.00
2022-11-10T05:35:42.577Z,100.00
2022-11-10T05:38:27.993Z,100.00
2022-11-10T05:41:12.969Z,100.00
2022-11-10T05:43:58.195Z,100.00
2022-11-10T05:46:43.343Z,100.00
2022-11-10T05:49:28.228Z,100.00
2022-11-10T05:52:13.397Z,100.00
2022-11-10T05:54:58.388Z,100.00
2022-11-10T05:57:45.297Z,100.00
2022-11-10T06:00:31.700Z,100.00
2022-11-10T06:03:19.482Z,100.00
2022-11-10T06:06:05.327Z,100.00
2022-11-10T06:08:50.827Z,100.00
2022-11-10T06:11:35.780Z,100.00
2022-11-10T06:14:20.695Z,100.00
2022-11-10T06:17:05.684Z,100.00
2022-11-10T06:19:50.521Z,100.00
2022-11-10T06:22:35.807Z,100.00
2022-11-10T06:25:21.132Z,100.00
2022-11-10T06:28:08.183Z,100.00
2022-11-10T06:30:53.063Z,100.00
2022-11-10T06:33:37.881Z,100.00
2022-11-10T06:36:22.812Z,100.00
2022-11-10T06:39:07.992Z,100.00
2022-11-10T06:41:53.116Z,100.00
2022-11-10T06:44:37.952Z,100.00
2022-11-10T06:47:22.929Z,100.00
2022-11-10T06:50:07.971Z,100.00
2022-11-10T06:52:57.399Z,100.00
2022-11-10T06:55:42.560Z,100.00
2022-11-10T06:58:27.436Z,100.00
2022-11-10T07:01:12.641Z,100.00
2022-11-10T07:04:18.655Z,100.00
2022-11-10T07:07:02.949Z,100.00
2022-11-10T07:09:47.852Z,100.00
2022-11-10T07:12:32.751Z,100.00
2022-11-10T07:15:17.558Z,100.00
2022-11-10T07:18:03.156Z,100.00
2022-11-10T07:20:48.264Z,100.00
2022-11-10T07:23:34.839Z,100.00
2022-11-10T07:26:19.885Z,100.00
2022-11-10T07:29:05.100Z,100.00
2022-11-10T07:31:50.229Z,100.00
2022-11-10T07:34:35.373Z,100.00
2022-11-10T07:37:20.464Z,100.00
2022-11-10T07:40:05.961Z,100.00
2022-11-10T07:42:51.182Z,100.00
2022-11-10T07:45:36.384Z,100.00
2022-11-10T07:48:21.266Z,100.00
2022-11-10T07:51:06.463Z,100.00
2022-11-10T07:53:51.404Z,100.00
2022-11-10T07:56:36.422Z,100.00
2022-11-10T07:59:21.170Z,100.00
2022-11-10T08:02:08.822Z,100.00
2022-11-10T08:04:54.148Z,100.00
2022-11-10T08:07:40.950Z,100.00
2022-11-10T08:10:30.329Z,100.00
2022-11-10T08:13:15.499Z,100.00
2022-11-10T08:16:01.221Z,100.00
2022-11-10T08:18:46.407Z,100.00
2022-11-10T08:21:31.436Z,100.00
2022-11-10T08:24:16.831Z,100.00
2022-11-10T08:27:01.787Z,100.00
2022-11-10T08:29:46.696Z,100.00
2022-11-10T08:32:31.848Z,100.00
2022-11-10T08:35:16.911Z,100.00
2022-11-10T08:38:10.127Z,100.00
2022-11-10T08:40:57.115Z,100.00
2022-11-10T08:43:42.502Z,100.00
2022-11-10T08:46:27.571Z,100.00
2022-11-10T08:49:12.503Z,100.00
2022-11-10T08:51:57.376Z,100.00
2022-11-10T08:54:42.210Z,100.00
2022-11-10T08:57:27.048Z,100.00
2022-11-10T09:00:13.779Z,100.00
2022-11-10T09:03:26.184Z,100.00
2022-11-10T09:06:11.335Z,100.00
2022-11-10T09:08:56.281Z,100.00
2022-11-10T09:11:41.243Z,100.00
2022-11-10T09:14:26.142Z,100.00
2022-11-10T09:17:11.152Z,100.00
2022-11-10T09:19:56.131Z,100.00
2022-11-10T09:22:40.967Z,100.00
2022-11-10T09:25:25.927Z,99.92
2022-11-10T09:28:14.707Z,96.14
2022-11-10T09:31:00.303Z,94.97
2022-11-10T09:33:45.686Z,94.73
2022-11-10T09:36:30.732Z,95.46
2022-11-10T09:39:15.921Z,93.05
2022-11-10T09:42:01.552Z,92.08
2022-11-10T09:44:54.887Z,92.83
2022-11-10T09:47:57.509Z,92.28
2022-11-10T09:51:01.429Z,92.15
2022-11-10T09:54:21.808Z,89.14
2022-11-10T09:57:11.228Z,90.37
2022-11-10T09:59:56.338Z,90.63
2022-11-10T10:02:56.193Z,90.84
2022-11-10T10:05:55.991Z,90.38
2022-11-10T10:08:54.397Z,89.86
2022-11-10T10:11:50.700Z,88.91
2022-11-10T10:15:14.441Z,86.85
2022-11-10T10:18:09.224Z,86.89
2022-11-10T10:21:18.668Z,86.15
2022-11-10T10:24:11.418Z,86.76
2022-11-10T10:27:01.036Z,86.29
2022-11-10T10:29:49.103Z,86.62
2022-11-10T10:32:34.453Z,85.82
2022-11-10T10:35:19.549Z,85.63
2022-11-10T10:38:12.100Z,85.15
2022-11-10T10:41:12.780Z,85.09
2022-11-10T10:44:00.495Z,83.44
2022-11-10T10:46:57.381Z,83.20
2022-11-10T10:49:42.204Z,81.81
2022-11-10T10:52:27.196Z,80.38
2022-11-10T10:55:14.020Z,79.38
2022-11-10T10:58:01.927Z,80.00
2022-11-10T11:00:50.063Z,80.10
2022-11-10T11:03:47.180Z,79.79
2022-11-10T11:06:33.850Z,79.91
2022-11-10T11:09:24.209Z,79.89
2022-11-10T11:12:22.634Z,79.69
2022-11-10T11:15:13.621Z,78.65
2022-11-10T11:18:01.091Z,78.38
2022-11-10T11:21:02.488Z,75.65
2022-11-10T11:24:15.343Z,76.29
2022-11-10T11:27:15.615Z,73.97
2022-11-10T11:30:05.891Z,75.20
2022-11-10T11:33:13.691Z,71.45
2022-11-10T11:36:34.354Z,72.38
2022-11-10T11:39:25.102Z,73.42
2022-11-10T11:42:37.491Z,73.47
2022-11-10T11:46:01.441Z,73.32
2022-11-10T11:49:06.999Z,73.41
2022-11-10T11:52:02.277Z,72.14
2022-11-10T11:55:11.419Z,73.01
2022-11-10T11:58:11.066Z,73.34
2022-11-10T12:01:23.719Z,72.45
2022-11-10T12:04:32.845Z,71.26
2022-11-10T12:07:32.808Z,72.39
2022-11-10T12:10:31.436Z,73.17
2022-11-10T12:13:36.457Z,73.89
2022-11-10T12:16:33.440Z,72.68
2022-11-10T12:19:24.307Z,72.74
2022-11-10T12:22:38.247Z,73.45
2022-11-10T12:25:36.109Z,73.33
2022-11-10T12:28:25.837Z,72.28
2022-11-10T12:31:17.318Z,74.23
2022-11-10T12:34:14.396Z,73.61
2022-11-10T12:37:02.900Z,72.39
2022-11-10T12:40:01.646Z,72.87
2022-11-10T12:42:55.628Z,73.31
2022-11-10T12:45:45.942Z,73.87
2022-11-10T12:48:46.668Z,72.79
2022-11-10T12:51:52.844Z,72.88
2022-11-10T12:54:39.813Z,70.92
2022-11-10T12:57:27.310Z,70.24
2022-11-10T13:00:32.327Z,71.23
2022-11-10T13:03:30.070Z,69.32
2022-11-10T13:06:40.165Z,70.02
2022-11-10T13:09:30.464Z,69.89
2022-11-10T13:12:18.647Z,71.22
2022-11-10T13:15:35.424Z,70.99
2022-11-10T13:18:32.458Z,71.99
2022-11-10T13:21:17.628Z,73.25
2022-11-10T13:24:18.875Z,74.66
2022-11-10T13:27:11.490Z,72.76
2022-11-10T13:29:58.361Z,70.38
2022-11-10T13:32:43.611Z,71.19
2022-11-10T13:35:28.731Z,69.82
2022-11-10T13:38:32.117Z,70.59
2022-11-10T13:41:17.163Z,69.44
2022-11-10T13:44:02.814Z,70.17
2022-11-10T13:47:01.803Z,69.98
2022-11-10T13:50:19.495Z,70.31
2022-11-10T13:53:41.825Z,69.56
2022-11-10T13:57:03.248Z,66.99
2022-11-10T13:59:56.383Z,66.13
2022-11-10T14:02:57.246Z,65.26
2022-11-10T14:05:57.287Z,63.87
2022-11-10T14:09:08.440Z,64.00
2022-11-10T14:11:58.995Z,63.77
2022-11-10T14:14:59.555Z,63.60
2022-11-10T14:17:49.467Z,64.57
2022-11-10T14:20:41.711Z,65.56
2022-11-10T14:23:51.304Z,67.45
2022-11-10T14:26:42.203Z,67.77
2022-11-10T14:29:40.668Z,67.71
2022-11-10T14:32:26.487Z,68.57
2022-11-10T14:35:20.736Z,69.89
2022-11-10T14:38:19.287Z,70.06
2022-11-10T14:41:06.709Z,71.21
2022-11-10T14:44:03.553Z,72.09
2022-11-10T14:46:48.522Z,73.84
2022-11-10T14:49:33.668Z,74.35
2022-11-10T14:52:18.865Z,75.21
2022-11-10T14:55:14.047Z,76.83
2022-11-10T14:58:12.039Z,76.35
2022-11-10T15:00:57.144Z,78.42
2022-11-10T15:03:43.156Z,78.97
2022-11-10T15:06:29.433Z,79.04
2022-11-10T15:09:30.241Z,83.26
2022-11-10T15:12:26.965Z,85.03
2022-11-10T15:15:21.464Z,84.98
2022-11-10T15:18:22.830Z,91.80
2022-11-10T15:21:12.695Z,95.55
2022-11-10T15:24:01.927Z,96.55
2022-11-10T15:26:46.920Z,96.25
2022-11-10T15:29:33.475Z,97.54
2022-11-10T15:32:21.376Z,99.27
2022-11-10T15:35:28.692Z,100.00
2022-11-10T15:38:19.565Z,100.00
2022-11-10T15:41:16.220Z,100.00
2022-11-10T15:44:21.938Z,100.00
2022-11-10T15:47:12.101Z,100.00
2022-11-10T15:49:57.439Z,100.00
2022-11-10T15:52:42.744Z,100.00
2022-11-10T15:55:29.198Z,100.00
2022-11-10T15:58:22.772Z,100.00
2022-11-10T16:01:12.066Z,100.00
2022-11-10T16:03:56.902Z,100.00
2022-11-10T16:06:42.039Z,100.00
2022-11-10T16:09:27.304Z,100.00
2022-11-10T16:12:19.264Z,100.00
2022-11-10T16:15:06.259Z,100.00
2022-11-10T16:17:51.474Z,100.00
2022-11-10T16:20:36.373Z,100.00
2022-11-10T16:23:21.451Z,100.00
2022-11-10T16:26:07.547Z,100.00
2022-11-10T16:28:52.551Z,100.00
2022-11-10T16:31:38.249Z,100.00
2022-11-10T16:34:23.579Z,100.00
2022-11-10T16:37:12.523Z,100.00
2022-11-10T16:39:57.579Z,100.00
2022-11-10T16:42:43.836Z,100.00
2022-11-10T16:45:30.312Z,100.00
2022-11-10T16:48:18.085Z,100.00
2022-11-10T16:51:02.953Z,100.00
2022-11-10T16:53:48.591Z,100.00
2022-11-10T16:56:33.656Z,100.00
2022-11-10T16:59:18.800Z,100.00
2022-11-10T17:02:04.381Z,100.00
2022-11-10T17:04:49.380Z,100.00
2022-11-10T17:07:35.568Z,100.00
2022-11-10T17:10:21.577Z,100.00
2022-11-10T17:13:11.064Z,100.00
2022-11-10T17:16:03.776Z,100.00
2022-11-10T17:18:50.534Z,100.00
2022-11-10T17:21:36.485Z,100.00
2022-11-10T17:24:21.636Z,100.00
2022-11-10T17:27:06.896Z,100.00
2022-11-10T17:29:52.001Z,100.00
2022-11-10T17:33:03.493Z,100.00
2022-11-10T17:35:47.160Z,100.00
2022-11-10T17:38:33.156Z,100.00
2022-11-10T17:41:19.949Z,100.00
2022-11-10T17:44:05.113Z,100.00
2022-11-10T17:46:49.967Z,100.00
2022-11-10T17:49:34.914Z,100.00
2022-11-10T17:52:19.831Z,100.00
2022-11-10T17:55:05.242Z,100.00
2022-11-10T17:57:50.978Z,100.00
2022-11-10T18:00:36.353Z,100.00
2022-11-10T18:03:22.957Z,100.00
2022-11-10T18:06:08.236Z,100.00
2022-11-10T18:08:53.415Z,100.00
2022-11-10T18:11:38.484Z,100.00
2022-11-10T18:14:23.654Z,100.00
2022-11-10T18:17:08.850Z,100.00
2022-11-10T18:19:53.752Z,100.00
2022-11-10T18:22:39.167Z,100.00
2022-11-10T18:25:24.233Z,100.00
2022-11-10T18:28:13.228Z,100.00
2022-11-10T18:30:58.669Z,100.00
2022-11-10T18:33:43.776Z,100.00
2022-11-10T18:36:28.758Z,100.00
2022-11-10T18:39:13.639Z,100.00
2022-11-10T18:41:58.499Z,100.00
2022-11-10T18:44:43.458Z,100.00
2022-11-10T18:47:28.620Z,100.00
2022-11-10T18:50:13.498Z,100.00
2022-11-10T18:52:58.548Z,100.00
2022-11-10T18:55:53.308Z,100.00
2022-11-10T18:58:38.412Z,100.00
2022-11-10T19:01:24.043Z,100.00
2022-11-10T19:04:09.808Z,100.00
2022-11-10T19:06:55.204Z,100.00
2022-11-10T19:09:40.239Z,100.00
2022-11-10T19:12:26.722Z,100.00
2022-11-10T19:15:12.165Z,100.00
2022-11-10T19:17:57.041Z,100.00
2022-11-10T19:20:42.155Z,100.00
2022-11-10T19:23:27.019Z,100.00
2022-11-10T19:26:19.349Z,100.00
2022-11-10T19:29:06.042Z,100.00
2022-11-10T19:31:51.311Z,100.00
2022-11-10T19:34:36.201Z,100.00
2022-11-10T19:37:21.485Z,100.00
2022-11-10T19:40:07.194Z,100.00
2022-11-10T19:42:52.468Z,100.00
2022-11-10T19:45:37.540Z,100.00
2022-11-10T19:48:22.736Z,100.00
2022-11-10T19:51:09.209Z,100.00
2022-11-10T19:54:01.396Z,100.00
2022-11-10T19:56:46.427Z,100.00
2022-11-10T19:59:32.474Z,100.00
2022-11-10T20:02:17.375Z,100.00
2022-11-10T20:05:16.096Z,100.00
2022-11-10T20:08:13.248Z,100.00
2022-11-10T20:11:00.343Z,100.00
2022-11-10T20:13:45.657Z,100.00
2022-11-10T20:16:31.035Z,100.00
2022-11-10T20:19:16.539Z,100.00
2022-11-10T20:22:01.619Z,100.00
2022-11-10T20:24:50.919Z,100.00
2022-11-10T20:27:37.202Z,100.00
2022-11-10T20:30:23.742Z,100.00
2022-11-10T20:33:08.905Z,100.00
2022-11-10T20:35:53.966Z,100.00
2022-11-10T20:38:39.786Z,100.00
2022-11-10T20:41:28.300Z,100.00
2022-11-10T20:44:13.771Z,100.00
2022-11-10T20:46:58.911Z,100.00
2022-11-10T20:49:44.272Z,100.00
2022-11-10T20:52:29.359Z,100.00
2022-11-10T20:55:18.230Z,100.00
2022-11-10T20:58:03.804Z,100.00
2022-11-10T21:00:48.700Z,100.00
2022-11-10T21:03:34.421Z,100.00
2022-11-10T21:06:19.227Z,100.00
2022-11-10T21:09:06.988Z,100.00
2022-11-10T21:12:10.523Z,100.00
2022-11-10T21:14:55.578Z,100.00
2022-11-10T21:17:44.103Z,100.00
2022-11-10T21:20:29.283Z,100.00
2022-11-10T21:23:14.351Z,100.00
2022-11-10T21:26:00.983Z,100.00
2022-11-10T21:28:46.022Z,100.00
2022-11-10T21:31:30.897Z,100.00
2022-11-10T21:34:15.855Z,100.00
2022-11-10T21:37:00.847Z,100.00
2022-11-10T21:39:46.111Z,100.00
2022-11-10T21:42:35.294Z,100.00
2022-11-10T21:45:20.990Z,100.00
2022-11-10T21:48:07.010Z,100.00
2022-11-10T21:50:51.907Z,100.00
2022-11-10T21:53:38.987Z,100.00
2022-11-10T21:56:23.899Z,100.00
2022-11-10T21:59:08.895Z,100.00
2022-11-10T22:01:54.336Z,100.00
2022-11-10T22:04:39.639Z,100.00
2022-11-10T22:07:24.591Z,100.00
2022-11-10T22:10:29.473Z,100.00
2022-11-10T22:13:34.711Z,100.00
2022-11-10T22:16:50.710Z,100.00
2022-11-10T22:19:36.954Z,100.00
2022-11-10T22:22:22.083Z,100.00
2022-11-10T22:25:08.080Z,100.00
2022-11-10T22:27:53.327Z,100.00
2022-11-10T22:30:38.127Z,100.00
2022-11-10T22:33:28.954Z,100.00
2022-11-10T22:36:16.224Z,100.00
2022-11-10T22:39:03.790Z,100.00
2022-11-10T22:42:08.036Z,100.00
2022-11-10T22:44:53.202Z,100.00
2022-11-10T22:47:57.013Z,100.00
2022-11-10T22:50:42.100Z,100.00
2022-11-10T22:53:27.411Z,100.00
2022-11-10T22:56:12.695Z,100.00
2022-11-10T22:59:00.062Z,100.00
2022-11-10T23:01:46.091Z,100.00
2022-11-10T23:04:31.319Z,100.00
2022-11-10T23:07:16.381Z,100.00
2022-11-10T23:10:01.159Z,100.00
2022-11-10T23:12:46.102Z,100.00
2022-11-10T23:15:34.460Z,100.00
2022-11-10T23:18:20.690Z,100.00
2022-11-10T23:21:09.322Z,100.00
2022-11-10T23:23:55.716Z,100.00
2022-11-10T23:26:40.929Z,100.00
2022-11-10T23:29:25.734Z,100.00
2022-11-10T23:32:10.714Z,100.00
2022-11-10T23:34:55.613Z,100.00
2022-11-10T23:37:40.734Z,100.00
2022-11-10T23:40:25.901Z,100.00
2022-11-10T23:43:11.213Z,100.00
2022-11-10T23:46:12.357Z,100.00
2022-11-10T23:48:57.541Z,100.00
2022-11-10T23:51:42.400Z,100.00
2022-11-10T23:54:27.244Z,100.00
2022-11-10T23:57:12.276Z,100.00
2022-11-10T23:59:57.182Z,100.00
